Time;durP1;ratioP1;P1;durP2;ratioP2;P2;SDS_P1;SDS_P2;PMS_P1;PMS_P2;Temp;Humidity;BMP_temperature;BMP_pressure;BME280_temperature;BME280_humidity;BME280_pressure;Samples;Min_cycle;Max_cycle;Signal;HPM_P1;HPM_P2
2024/03/07 00:00:56;;;;;;;25.10;13.70;;;5.60;99.90;;;;;;5048372;28;20183;-69
2024/03/07 00:03:24;;;;;;;27.77;15.10;;;5.60;99.90;;;;;;5051671;28;20416;-69
2024/03/07 00:05:49;;;;;;;25.63;13.20;;;5.50;99.90;;;;;;5050853;28;20665;-68
2024/03/07 00:08:15;;;;;;;24.60;12.97;;;5.50;99.90;;;;;;5052139;28;20753;-68
2024/03/07 00:10:43;;;;;;;22.30;13.67;;;5.50;99.90;;;;;;5049334;28;20236;-68
2024/03/07 00:13:09;;;;;;;27.07;14.83;;;5.50;99.90;;;;;;5050988;28;20269;-68
2024/03/07 00:15:35;;;;;;;23.50;10.90;;;5.40;99.90;;;;;;5051841;28;20934;-68
2024/03/07 00:18:00;;;;;;;20.10;11.50;;;5.40;99.90;;;;;;5051955;28;20516;-69
2024/03/07 00:20:26;;;;;;;26.20;13.10;;;5.40;99.90;;;;;;5050614;28;20262;-69
2024/03/07 00:22:51;;;;;;;25.10;13.63;;;5.40;99.90;;;;;;5048529;28;20232;-68
2024/03/07 00:25:19;;;;;;;26.30;13.03;;;5.30;99.90;;;;;;5050323;28;20210;-69
2024/03/07 00:27:45;;;;;;;20.83;12.73;;;5.30;99.90;;;;;;5051138;28;20194;-68
2024/03/07 00:30:13;;;;;;;19.93;11.90;;;5.30;99.90;;;;;;5051420;28;20784;-67
2024/03/07 00:32:39;;;;;;;20.17;11.40;;;5.30;99.90;;;;;;5051750;28;20401;-68
2024/03/07 00:35:08;;;;;;;28.70;13.00;;;5.20;99.90;;;;;;5046304;28;20908;-68
2024/03/07 00:37:34;;;;;;;22.37;11.20;;;5.20;99.90;;;;;;5051686;28;20483;-68
2024/03/07 00:40:00;;;;;;;26.07;13.23;;;5.20;99.90;;;;;;5052107;28;20401;-68
2024/03/07 00:42:27;;;;;;;23.37;11.40;;;5.10;99.90;;;;;;5051479;28;20496;-68
2024/03/07 00:44:53;;;;;;;25.83;12.63;;;5.10;99.90;;;;;;5043517;28;20178;-68
2024/03/07 00:47:18;;;;;;;26.70;13.20;;;5.10;99.90;;;;;;5053809;28;20431;-68
2024/03/07 00:49:47;;;;;;;25.50;12.47;;;5.00;99.90;;;;;;5053779;28;20194;-68
2024/03/07 00:52:13;;;;;;;25.60;13.90;;;5.00;99.90;;;;;;5053229;28;20586;-69
2024/03/07 00:54:39;;;;;;;27.60;14.17;;;5.00;99.90;;;;;;5048260;28;20976;-68
2024/03/07 00:57:05;;;;;;;20.00;11.90;;;5.00;99.90;;;;;;5052850;28;20520;-68
2024/03/07 00:59:30;;;;;;;34.63;14.80;;;5.00;99.90;;;;;;5053737;28;20171;-68
2024/03/07 01:01:56;;;;;;;22.50;12.00;;;4.90;99.90;;;;;;5053388;28;20177;-68
2024/03/07 01:04:22;;;;;;;22.47;11.97;;;4.90;99.90;;;;;;5050038;28;20175;-68
2024/03/07 01:06:47;;;;;;;30.90;14.83;;;4.90;99.90;;;;;;5053551;28;20190;-69
2024/03/07 01:09:18;;;;;;;31.47;12.37;;;4.80;99.90;;;;;;5053624;28;20420;-68
2024/03/07 01:11:47;;;;;;;31.40;13.77;;;4.80;99.90;;;;;;5053434;28;20191;-69
2024/03/07 01:14:13;;;;;;;32.60;16.27;;;4.80;99.90;;;;;;5051047;28;20928;-69
2024/03/07 01:16:39;;;;;;;22.97;12.47;;;4.80;99.90;;;;;;5053306;28;20463;-69
2024/03/07 01:19:05;;;;;;;23.43;13.50;;;4.80;99.90;;;;;;5053333;28;20205;-68
2024/03/07 01:21:35;;;;;;;30.50;14.43;;;4.70;99.90;;;;;;5053331;28;20171;-68
2024/03/07 01:24:01;;;;;;;33.57;15.73;;;4.70;99.90;;;;;;5049120;28;20426;-68
2024/03/07 01:26:30;;;;;;;29.90;14.40;;;4.70;99.90;;;;;;5051748;28;20461;-68
2024/03/07 01:28:59;;;;;;;29.10;15.37;;;4.70;99.90;;;;;;5056027;28;20795;-68
2024/03/07 01:31:25;;;;;;;26.10;13.83;;;4.60;99.90;;;;;;5057236;28;20535;-68
2024/03/07 01:33:50;;;;;;;30.03;13.90;;;4.60;99.90;;;;;;5050343;28;20446;-68
2024/03/07 01:36:16;;;;;;;37.27;15.77;;;4.60;99.90;;;;;;5055182;28;20205;-69
2024/03/07 01:38:42;;;;;;;30.50;12.90;;;4.60;99.90;;;;;;5056705;28;20198;-68
2024/03/07 01:41:08;;;;;;;22.70;13.33;;;4.60;99.90;;;;;;5056880;28;20174;-69
2024/03/07 01:43:34;;;;;;;24.60;13.33;;;4.60;99.90;;;;;;5051190;28;20480;-68
2024/03/07 01:46:00;;;;;;;26.40;13.97;;;4.60;99.90;;;;;;5054818;28;20947;-70
2024/03/07 01:48:28;;;;;;;24.07;12.30;;;4.50;99.90;;;;;;5056733;28;20194;-69
2024/03/07 01:50:55;;;;;;;29.90;14.77;;;4.50;99.90;;;;;;5057027;28;20159;-69
2024/03/07 01:53:22;;;;;;;30.43;12.77;;;4.50;99.90;;;;;;5052692;28;20433;-69
2024/03/07 01:55:47;;;;;;;27.63;14.23;;;4.40;99.90;;;;;;5053299;28;20481;-69
2024/03/07 01:58:17;;;;;;;21.20;13.20;;;4.40;99.90;;;;;;5056116;28;20967;-68
2024/03/07 02:00:43;;;;;;;32.20;15.20;;;4.40;99.90;;;;;;5054995;28;20217;-69
2024/03/07 02:03:09;;;;;;;36.60;15.67;;;4.40;99.90;;;;;;5056006;28;20405;-68
2024/03/07 02:05:35;;;;;;;29.37;14.90;;;4.30;99.90;;;;;;5049805;28;20472;-68
2024/03/07 02:08:01;;;;;;;27.67;14.10;;;4.30;99.90;;;;;;5055425;28;20684;-69
2024/03/07 02:10:27;;;;;;;27.90;14.30;;;4.20;99.90;;;;;;5055704;28;20170;-68
2024/03/07 02:12:52;;;;;;;30.07;14.57;;;4.20;99.90;;;;;;5054962;28;20402;-69
2024/03/07 02:15:18;;;;;;;27.23;13.00;;;4.20;99.90;;;;;;5049348;28;20183;-69
2024/03/07 02:17:44;;;;;;;26.27;12.37;;;4.20;99.90;;;;;;5055444;28;20560;-69
2024/03/07 02:20:13;;;;;;;21.43;12.83;;;4.20;99.90;;;;;;5054791;28;20179;-68
2024/03/07 02:22:39;;;;;;;23.17;13.03;;;4.10;99.90;;;;;;5053920;28;20491;-69
2024/03/07 02:25:06;;;;;;;29.77;14.53;;;4.10;99.90;;;;;;5050179;28;21018;-69
2024/03/07 02:27:32;;;;;;;26.57;13.40;;;4.10;99.90;;;;;;5053622;28;20475;-68
2024/03/07 02:29:57;;;;;;;21.87;11.87;;;4.10;99.90;;;;;;5053873;28;20421;-68
2024/03/07 02:32:23;;;;;;;26.37;12.77;;;4.10;99.90;;;;;;5052149;28;20582;-69
2024/03/07 02:34:48;;;;;;;35.77;15.23;;;4.00;99.90;;;;;;5047529;28;20170;-68
2024/03/07 02:37:14;;;;;;;26.90;15.53;;;4.10;99.90;;;;;;5052154;28;20665;-68
2024/03/07 02:39:40;;;;;;;33.57;14.57;;;4.00;99.90;;;;;;5052998;28;20525;-67
2024/03/07 02:42:05;;;;;;;28.13;13.70;;;4.00;99.90;;;;;;5053609;28;20167;-68
2024/03/07 02:44:31;;;;;;;27.20;12.70;;;4.00;99.90;;;;;;5047529;28;20170;-68
2024/03/07 02:46:58;;;;;;;26.40;12.50;;;4.00;99.90;;;;;;5051919;28;20504;-68
2024/03/07 02:49:23;;;;;;;25.00;14.67;;;4.00;99.90;;;;;;5052236;28;20170;-68
2024/03/07 02:51:49;;;;;;;28.03;14.10;;;4.00;99.90;;;;;;5053732;28;20927;-68
2024/03/07 02:54:14;;;;;;;26.50;12.27;;;4.00;99.90;;;;;;5047325;28;20201;-68
2024/03/07 02:56:40;;;;;;;28.37;14.43;;;4.00;99.90;;;;;;5053512;28;20650;-68
2024/03/07 02:59:06;;;;;;;30.13;14.97;;;3.90;99.90;;;;;;5053522;28;20186;-69
2024/03/07 03:01:32;;;;;;;25.13;13.70;;;3.90;99.90;;;;;;5052472;28;20174;-68
2024/03/07 03:03:58;;;;;;;28.33;13.80;;;3.90;99.90;;;;;;5046503;28;20457;-69
2024/03/07 03:06:23;;;;;;;37.63;15.43;;;3.90;99.90;;;;;;5053280;28;20500;-69
2024/03/07 03:08:49;;;;;;;27.13;14.77;;;3.80;99.90;;;;;;5053427;28;20244;-68
2024/03/07 03:11:14;;;;;;;28.60;14.30;;;3.80;99.90;;;;;;5053403;28;20166;-68
2024/03/07 03:13:40;;;;;;;29.97;14.90;;;3.80;99.90;;;;;;5048948;28;20185;-68
2024/03/07 03:16:09;;;;;;;35.87;14.67;;;3.70;99.90;;;;;;5051199;28;20171;-68
2024/03/07 03:18:35;;;;;;;31.70;15.67;;;3.70;99.90;;;;;;5054354;28;20716;-68
2024/03/07 03:21:02;;;;;;;37.63;15.10;;;3.70;99.90;;;;;;5055563;28;20401;-68
2024/03/07 03:23:30;;;;;;;28.87;13.33;;;3.70;99.90;;;;;;5051295;28;20792;-69
2024/03/07 03:25:56;;;;;;;31.33;14.67;;;3.70;99.90;;;;;;5051176;28;20449;-68
2024/03/07 03:28:23;;;;;;;49.70;24.67;;;3.60;99.90;;;;;;5054240;28;20572;-69
2024/03/07 03:30:49;;;;;;;46.27;23.83;;;3.60;99.90;;;;;;5052973;28;20162;-69
2024/03/07 03:33:15;;;;;;;39.87;18.87;;;3.60;99.90;;;;;;5052616;28;20417;-68
2024/03/07 03:35:41;;;;;;;32.47;16.10;;;3.60;99.90;;;;;;5049634;28;20413;-68
2024/03/07 03:38:07;;;;;;;26.77;13.30;;;3.60;99.90;;;;;;5052023;28;20562;-68
2024/03/07 03:40:34;;;;;;;29.60;14.00;;;3.50;99.90;;;;;;5052855;28;20402;-68
2024/03/07 03:43:00;;;;;;;25.20;13.90;;;3.50;99.90;;;;;;5051467;28;20402;-68
2024/03/07 03:45:26;;;;;;;26.37;12.97;;;3.50;99.90;;;;;;5047584;28;20548;-68
2024/03/07 03:47:51;;;;;;;24.13;13.57;;;3.50;99.90;;;;;;5052497;28;20952;-69
2024/03/07 03:50:17;;;;;;;30.30;12.97;;;3.50;99.90;;;;;;5051334;28;20402;-68
2024/03/07 03:52:43;;;;;;;27.90;13.53;;;3.40;99.90;;;;;;5051927;28;20669;-69
2024/03/07 03:55:09;;;;;;;27.77;14.80;;;3.40;99.90;;;;;;5048754;28;20598;-68
2024/03/07 03:57:35;;;;;;;24.47;13.80;;;3.40;99.90;;;;;;5045551;28;20512;-68
2024/03/07 04:00:12;;;;;;;30.10;13.00;;;3.40;99.90;;;;;;5052816;28;20966;-68
2024/03/07 04:02:41;;;;;;;25.97;13.40;;;3.40;99.90;;;;;;5052706;28;20404;-68
2024/03/07 04:05:09;;;;;;;34.47;14.17;;;3.40;99.90;;;;;;5047248;28;20862;-68
2024/03/07 04:07:35;;;;;;;29.03;12.40;;;3.30;99.90;;;;;;5051385;28;20995;-68
2024/03/07 04:10:03;;;;;;;30.40;14.53;;;3.30;99.90;;;;;;5052350;28;20440;-69
2024/03/07 04:12:28;;;;;;;38.63;18.70;;;3.30;99.90;;;;;;5052341;28;20397;-68
2024/03/07 04:14:56;;;;;;;29.07;14.17;;;3.30;99.90;;;;;;5048960;28;20490;-68
2024/03/07 04:17:22;;;;;;;33.43;15.10;;;3.30;99.90;;;;;;5052005;28;20577;-69
2024/03/07 04:19:48;;;;;;;22.07;13.40;;;3.20;99.90;;;;;;5052820;28;20406;-68
2024/03/07 04:22:13;;;;;;;26.60;14.10;;;3.30;99.90;;;;;;5051416;28;20232;-68
2024/03/07 04:24:40;;;;;;;26.17;13.60;;;3.20;99.90;;;;;;5046278;28;20228;-68
2024/03/07 04:27:06;;;;;;;18.60;10.80;;;3.20;99.90;;;;;;5051215;28;20352;-68
2024/03/07 04:29:35;;;;;;;22.27;10.23;;;3.20;99.90;;;;;;5052886;28;20400;-68
2024/03/07 04:32:03;;;;;;;23.20;11.70;;;3.10;99.90;;;;;;5052666;28;20397;-68
2024/03/07 04:34:30;;;;;;;25.10;12.70;;;3.10;99.90;;;;;;5048946;28;20453;-68
2024/03/07 04:37:01;;;;;;;25.90;10.30;;;3.10;99.90;;;;;;5050869;28;20421;-68
2024/03/07 04:39:32;;;;;;;18.87;10.53;;;3.10;99.90;;;;;;5051384;28;20414;-69
2024/03/07 04:42:05;;;;;;;21.90;12.20;;;3.10;99.90;;;;;;5052505;28;20462;-68
2024/03/07 04:44:32;;;;;;;22.50;10.60;;;3.00;99.90;;;;;;5047372;28;20468;-68
2024/03/07 04:46:59;;;;;;;25.20;11.90;;;3.00;99.90;;;;;;5051789;28;20464;-68
2024/03/07 04:49:26;;;;;;;23.43;11.77;;;3.00;99.90;;;;;;5053402;28;20901;-68
2024/03/07 04:51:53;;;;;;;31.07;11.80;;;3.00;99.90;;;;;;5054367;28;20448;-68
2024/03/07 04:54:19;;;;;;;16.97;10.57;;;3.00;99.90;;;;;;5050554;28;20946;-69
2024/03/07 04:56:45;;;;;;;25.60;12.10;;;2.90;99.90;;;;;;5053945;28;20948;-70
2024/03/07 04:59:11;;;;;;;29.30;13.17;;;2.90;99.90;;;;;;5052463;28;20440;-70
2024/03/07 05:01:38;;;;;;;25.57;12.40;;;2.90;99.90;;;;;;5054156;28;20409;-70
2024/03/07 05:04:04;;;;;;;21.20;11.60;;;2.90;99.90;;;;;;5051708;28;20426;-70
2024/03/07 05:06:33;;;;;;;22.90;11.33;;;2.90;99.90;;;;;;5053710;28;20451;-69
2024/03/07 05:09:00;;;;;;;24.80;11.13;;;2.90;99.90;;;;;;5057930;28;20425;-68
2024/03/07 05:11:25;;;;;;;25.53;12.13;;;2.90;99.90;;;;;;5057882;28;20480;-69
2024/03/07 05:13:51;;;;;;;21.33;10.77;;;2.90;99.90;;;;;;5053333;28;20448;-68
2024/03/07 05:16:17;;;;;;;28.07;12.37;;;2.90;99.90;;;;;;5055619;28;20262;-68
2024/03/07 05:18:43;;;;;;;23.53;10.30;;;2.80;99.90;;;;;;5056939;28;20286;-68
2024/03/07 05:23:53;;;;;;;25.57;14.17;;;2.80;99.90;;;;;;5051841;28;20245;-68
2024/03/07 05:26:18;;;;;;;30.70;16.13;;;2.80;99.90;;;;;;5056643;28;20452;-68
2024/03/07 05:28:44;;;;;;;26.23;14.33;;;2.80;99.90;;;;;;5057207;28;20252;-68
2024/03/07 05:31:12;;;;;;;17.93;11.20;;;2.80;99.90;;;;;;5057529;28;20159;-69
2024/03/07 05:33:38;;;;;;;25.00;11.30;;;2.80;99.90;;;;;;5055124;28;20175;-68
2024/03/07 05:36:14;;;;;;;24.07;12.00;;;2.80;99.90;;;;;;5050435;28;20504;-69
2024/03/07 05:38:43;;;;;;;20.83;10.00;;;2.80;99.90;;;;;;5055225;28;20420;-69
2024/03/07 05:41:12;;;;;;;21.13;12.30;;;2.90;99.90;;;;;;5052028;28;20919;-70
2024/03/07 05:43:41;;;;;;;17.57;10.87;;;2.90;99.90;;;;;;5056460;28;20413;-69
2024/03/07 05:46:10;;;;;;;24.17;10.97;;;3.00;99.90;;;;;;5056752;28;20437;-68
2024/03/07 05:48:36;;;;;;;19.20;10.07;;;3.00;99.90;;;;;;5056750;28;20421;-68
2024/03/07 05:51:02;;;;;;;21.57;9.47;;;3.00;99.90;;;;;;5057137;28;20405;-69
2024/03/07 05:53:28;;;;;;;20.03;11.10;;;3.10;99.90;;;;;;5057750;28;20548;-69
2024/03/07 05:55:54;;;;;;;24.20;12.07;;;3.10;99.90;;;;;;5057027;28;20405;-68
2024/03/07 05:58:22;;;;;;;29.03;11.33;;;3.20;99.90;;;;;;5057225;28;20191;-68
2024/03/07 06:00:51;;;;;;;25.93;12.10;;;3.20;99.90;;;;;;5057145;28;20432;-68
2024/03/07 06:03:19;;;;;;;17.73;10.17;;;3.30;99.90;;;;;;5057573;28;20779;-68
2024/03/07 06:05:48;;;;;;;26.17;12.97;;;3.40;99.90;;;;;;5055490;28;20449;-69
2024/03/07 06:08:18;;;;;;;41.63;21.30;;;3.50;99.90;;;;;;5056849;28;20417;-68
2024/03/07 06:10:44;;;;;;;36.73;16.10;;;3.60;99.90;;;;;;5057019;28;20410;-69
2024/03/07 06:13:11;;;;;;;30.50;14.27;;;3.70;99.90;;;;;;5056654;28;20405;-68
2024/03/07 06:15:38;;;;;;;30.00;15.57;;;3.80;99.90;;;;;;5056052;28;20401;-68
2024/03/07 06:18:04;;;;;;;26.60;13.80;;;3.90;99.90;;;;;;5056814;28;20464;-68
2024/03/07 06:20:30;;;;;;;22.20;12.50;;;3.90;99.90;;;;;;5055938;28;20940;-69
2024/03/07 06:22:57;;;;;;;27.60;12.30;;;4.00;99.90;;;;;;5056855;28;20397;-68
2024/03/07 06:25:46;;;;;;;21.17;10.50;;;4.10;99.90;;;;;;5048235;28;20187;-69
2024/03/07 06:28:12;;;;;;;22.23;10.63;;;4.10;99.90;;;;;;5055971;28;20727;-68
2024/03/07 06:30:47;;;;;;;30.60;12.97;;;4.20;99.90;;;;;;5056121;28;20776;-68
2024/03/07 06:33:14;;;;;;;30.10;13.70;;;4.30;99.90;;;;;;5055512;28;20664;-70
2024/03/07 06:35:41;;;;;;;22.70;12.97;;;4.40;99.90;;;;;;5055447;28;20405;-68
2024/03/07 06:38:08;;;;;;;23.40;13.30;;;4.40;99.90;;;;;;5049892;28;20473;-68
2024/03/07 06:40:34;;;;;;;19.60;10.37;;;4.50;99.90;;;;;;5053478;28;20467;-69
2024/03/07 06:42:59;;;;;;;22.40;11.27;;;4.60;99.90;;;;;;5055240;28;20409;-69
2024/03/07 06:45:26;;;;;;;23.03;12.30;;;4.70;99.90;;;;;;5054100;28;20451;-69
2024/03/07 06:47:54;;;;;;;29.57;13.27;;;4.80;99.90;;;;;;5055348;28;20186;-69
2024/03/07 06:50:20;;;;;;;20.23;10.67;;;5.00;99.90;;;;;;5055170;28;20463;-68
2024/03/07 06:52:49;;;;;;;25.00;11.90;;;5.10;99.90;;;;;;5054503;28;20924;-68
2024/03/07 06:55:16;;;;;;;18.90;11.47;;;5.30;99.90;;;;;;5054278;28;20167;-68
2024/03/07 06:57:43;;;;;;;20.17;11.47;;;5.60;99.90;;;;;;5054357;28;20432;-69
2024/03/07 07:00:10;;;;;;;15.90;10.53;;;5.90;99.90;;;;;;5054249;28;20853;-68
2024/03/07 07:02:41;;;;;;;22.17;12.17;;;6.10;99.90;;;;;;5054042;28;20495;-68
2024/03/07 07:05:12;;;;;;;24.43;11.50;;;6.40;99.90;;;;;;5051665;28;20412;-70
2024/03/07 07:07:38;;;;;;;21.80;13.03;;;6.60;99.90;;;;;;5052660;28;20425;-68
2024/03/07 07:10:07;;;;;;;25.27;12.93;;;6.80;99.90;;;;;;5048710;28;20845;-69
2024/03/07 07:12:33;;;;;;;21.80;11.80;;;7.00;99.90;;;;;;5053694;28;20876;-69
2024/03/07 07:14:58;;;;;;;22.90;12.00;;;7.10;99.90;;;;;;5054326;28;20405;-69
2024/03/07 07:17:25;;;;;;;25.80;14.70;;;7.20;99.90;;;;;;5053805;28;20183;-69
2024/03/07 07:19:52;;;;;;;24.77;13.57;;;7.30;99.90;;;;;;5054135;28;20167;-70
2024/03/07 07:22:18;;;;;;;24.73;13.03;;;7.30;99.90;;;;;;5052073;28;20492;-69
2024/03/07 07:24:44;;;;;;;21.80;11.90;;;7.50;99.90;;;;;;5049030;28;20809;-70
2024/03/07 07:27:09;;;;;;;19.20;12.60;;;7.60;99.90;;;;;;5052796;28;20771;-69
2024/03/07 07:29:35;;;;;;;21.03;13.00;;;7.80;99.90;;;;;;5053533;28;20443;-69
2024/03/07 07:32:00;;;;;;;24.70;13.23;;;7.80;99.90;;;;;;5051697;28;20160;-69
2024/03/07 07:34:26;;;;;;;32.53;14.67;;;8.00;99.90;;;;;;5052937;28;20171;-69
2024/03/07 07:36:53;;;;;;;28.73;14.27;;;8.20;99.90;;;;;;5052656;28;20653;-68
2024/03/07 07:39:18;;;;;;;20.43;12.80;;;8.40;99.90;;;;;;5052788;28;20202;-69
2024/03/07 07:41:44;;;;;;;29.27;14.83;;;8.70;99.90;;;;;;5052527;28;20839;-69
2024/03/07 07:44:09;;;;;;;23.83;15.00;;;9.50;99.90;;;;;;5052463;28;20173;-69
2024/03/07 07:46:35;;;;;;;30.80;15.73;;;10.70;99.90;;;;;;5051996;28;20187;-69
2024/03/07 07:49:02;;;;;;;21.50;12.83;;;11.90;99.90;;;;;;5042122;28;20227;-69
2024/03/07 07:51:28;;;;;;;26.00;14.90;;;13.10;99.90;;;;;;5048978;28;20213;-69
2024/03/07 07:53:56;;;;;;;23.60;11.90;;;14.00;99.90;;;;;;5034670;28;20422;-69
2024/03/07 07:56:22;;;;;;;22.13;13.97;;;14.80;99.90;;;;;;5039399;28;20262;-69
2024/03/07 07:58:48;;;;;;;18.60;11.10;;;15.70;99.90;;;;;;5040555;28;20537;-69
2024/03/07 08:01:16;;;;;;;21.30;13.63;;;16.60;99.90;;;;;;5035862;28;20179;-69
2024/03/07 08:03:43;;;;;;;18.63;13.00;;;17.20;99.20;;;;;;5045483;28;20413;-69
2024/03/07 08:06:09;;;;;;;20.23;12.83;;;18.10;94.60;;;;;;5051908;28;20453;-69
2024/03/07 08:08:35;;;;;;;20.77;12.37;;;19.00;90.20;;;;;;5051952;28;20425;-69
2024/03/07 08:11:01;;;;;;;18.93;12.47;;;19.50;66.30;;;;;;5052012;28;20723;-70
2024/03/07 08:13:26;;;;;;;15.97;12.00;;;20.40;63.90;;;;;;5049610;28;20559;-70
2024/03/07 08:15:53;;;;;;;21.00;13.00;;;21.20;58.30;;;;;;5041968;28;20421;-69
2024/03/07 08:18:20;;;;;;;15.97;12.10;;;21.90;54.80;;;;;;5051645;28;20197;-69
2024/03/07 08:20:45;;;;;;;14.30;12.20;;;22.60;49.90;;;;;;5051670;28;20920;-70
2024/03/07 08:23:12;;;;;;;18.37;13.13;;;23.40;47.50;;;;;;5051377;28;20425;-69
2024/03/07 08:25:40;;;;;;;13.50;11.57;;;24.20;46.10;;;;;;5051569;28;20191;-70
2024/03/07 08:28:06;;;;;;;17.60;12.10;;;24.80;43.80;;;;;;5051824;28;20787;-70
2024/03/07 08:30:32;;;;;;;12.80;9.77;;;25.60;42.00;;;;;;5051750;28;20397;-70
2024/03/07 08:33:05;;;;;;;16.07;13.00;;;26.30;40.40;;;;;;5051515;28;20401;-70
2024/03/07 08:35:30;;;;;;;16.10;11.47;;;26.80;35.50;;;;;;5051612;28;20228;-67
2024/03/07 08:37:57;;;;;;;12.13;10.93;;;26.60;33.60;;;;;;5052991;28;20425;-67
2024/03/07 08:40:30;;;;;;;14.30;12.80;;;27.10;33.70;;;;;;5055857;28;20167;-67
2024/03/07 08:42:59;;;;;;;13.73;10.70;;;27.70;31.10;;;;;;5055526;28;20413;-67
2024/03/07 08:45:26;;;;;;;11.50;10.50;;;28.30;32.20;;;;;;5055670;28;20452;-68
2024/03/07 08:47:56;;;;;;;12.10;9.67;;;28.90;31.50;;;;;;5055637;28;20417;-68
2024/03/07 08:50:23;;;;;;;16.63;12.27;;;29.20;29.50;;;;;;5048243;28;20500;-67
2024/03/07 08:52:50;;;;;;;13.50;11.33;;;29.50;28.30;;;;;;5055059;28;20425;-67
2024/03/07 08:55:20;;;;;;;13.30;11.77;;;29.50;28.00;;;;;;5055514;28;20458;-67
2024/03/07 08:57:48;;;;;;;13.90;9.57;;;29.00;26.50;;;;;;5047864;28;20496;-67
2024/03/07 09:00:23;;;;;;;11.70;10.60;;;29.10;27.40;;;;;;5055363;28;20409;-67
2024/03/07 09:03:03;;;;;;;11.47;9.80;;;28.90;26.20;;;;;;5046808;28;20405;-67
2024/03/07 09:05:29;;;;;;;13.77;11.70;;;28.60;26.30;;;;;;5045816;28;20488;-66
2024/03/07 09:07:55;;;;;;;11.50;9.37;;;28.40;25.40;;;;;;5052106;28;20433;-67
2024/03/07 09:10:21;;;;;;;12.70;9.70;;;28.90;26.30;;;;;;5052122;28;20416;-67
2024/03/07 09:12:50;;;;;;;12.60;11.40;;;29.20;26.20;;;;;;5054875;28;20409;-67
2024/03/07 09:15:21;;;;;;;12.43;11.10;;;28.60;24.50;;;;;;5055002;28;20216;-67
2024/03/07 09:17:47;;;;;;;15.67;11.83;;;28.00;24.90;;;;;;5042161;28;20489;-67
2024/03/07 09:20:16;;;;;;;16.37;11.00;;;27.00;25.10;;;;;;5037589;28;20425;-67
2024/03/07 09:22:42;;;;;;;13.43;10.27;;;26.90;26.40;;;;;;5038406;28;20410;-67
2024/03/07 09:25:08;;;;;;;11.67;10.00;;;27.50;26.10;;;;;;5042038;28;20987;-67
2024/03/07 09:27:34;;;;;;;15.83;11.00;;;28.00;25.40;;;;;;5054585;28;20511;-68
2024/03/07 09:29:59;;;;;;;11.20;8.57;;;27.90;24.60;;;;;;5051943;28;20549;-68
2024/03/07 09:32:25;;;;;;;13.53;10.93;;;28.70;25.30;;;;;;5039155;28;20269;-69
2024/03/07 09:34:50;;;;;;;14.17;9.47;;;28.00;24.40;;;;;;5054422;28;20170;-68
2024/03/07 09:37:17;;;;;;;15.00;10.77;;;28.40;25.40;;;;;;5052058;28;21978;-68
2024/03/07 09:39:43;;;;;;;14.50;10.67;;;28.30;24.50;;;;;;5039871;28;20171;-69
2024/03/07 09:42:09;;;;;;;15.50;12.90;;;26.90;24.10;;;;;;5050275;28;20406;-68
2024/03/07 09:44:39;;;;;;;13.60;9.97;;;24.70;24.80;;;;;;5054308;28;20182;-68
2024/03/07 09:47:05;;;;;;;13.60;11.20;;;23.80;26.70;;;;;;5054559;28;20449;-68
2024/03/07 09:49:33;;;;;;;15.80;11.73;;;22.30;27.10;;;;;;5048398;28;20794;-68
2024/03/07 09:52:00;;;;;;;14.23;10.70;;;20.70;28.30;;;;;;5050147;28;20236;-68
2024/03/07 09:54:26;;;;;;;14.53;9.90;;;19.30;29.00;;;;;;5054026;28;20413;-67
2024/03/07 09:56:54;;;;;;;10.83;9.03;;;18.10;29.80;;;;;;5054271;28;20440;-67
2024/03/07 09:59:23;;;;;;;14.30;12.57;;;17.00;30.90;;;;;;5054331;28;20417;-67
2024/03/07 10:01:54;;;;;;;12.23;10.10;;;16.10;32.70;;;;;;5054212;28;20827;-67
2024/03/07 10:04:40;;;;;;;16.67;11.60;;;15.50;34.40;;;;;;5053728;28;20504;-68
2024/03/07 10:07:11;;;;;;;14.50;9.77;;;15.00;35.40;;;;;;5048876;28;20472;-67
2024/03/07 10:09:38;;;;;;;14.40;9.80;;;14.60;36.30;;;;;;5037951;28;20935;-67
2024/03/07 10:12:04;;;;;;;17.57;9.77;;;14.30;37.70;;;;;;5033900;28;20936;-67
2024/03/07 10:14:32;;;;;;;15.23;9.60;;;14.00;38.50;;;;;;5044898;28;20421;-67
2024/03/07 10:16:58;;;;;;;16.43;10.17;;;13.80;39.30;;;;;;5032076;28;20765;-67
2024/03/07 10:19:24;;;;;;;15.97;9.70;;;13.60;39.60;;;;;;5025315;28;20434;-67
2024/03/07 10:21:51;;;;;;;17.57;11.53;;;13.80;40.20;;;;;;5024925;28;20766;-67
2024/03/07 10:24:17;;;;;;;18.10;10.40;;;13.80;39.70;;;;;;5028946;28;20179;-68
2024/03/07 10:26:43;;;;;;;11.73;9.33;;;13.40;39.60;;;;;;5043407;28;20908;-68
2024/03/07 10:29:08;;;;;;;16.73;9.73;;;13.50;40.70;;;;;;5053626;28;20187;-68
2024/03/07 10:31:36;;;;;;;12.93;10.33;;;13.50;40.60;;;;;;5053748;28;20941;-68
2024/03/07 10:34:03;;;;;;;14.37;9.60;;;13.40;41.30;;;;;;5053326;28;20522;-68
2024/03/07 10:36:32;;;;;;;15.63;10.67;;;13.20;40.80;;;;;;5053515;28;20821;-68
2024/03/07 10:39:17;;;;;;;11.40;9.43;;;13.10;41.70;;;;;;5053519;28;20433;-68
2024/03/07 10:41:46;;;;;;;17.57;10.73;;;13.20;41.90;;;;;;5053649;28;20409;-68
2024/03/07 10:44:28;;;;;;;14.63;10.50;;;13.20;41.50;;;;;;5049185;28;20428;-68
2024/03/07 10:46:55;;;;;;;15.90;10.17;;;13.20;41.60;;;;;;5045953;28;20496;-68
2024/03/07 10:49:24;;;;;;;14.37;10.50;;;15.40;43.20;;;;;;5052988;28;20405;-68
2024/03/07 10:52:10;;;;;;;13.30;10.33;;;18.50;41.00;;;;;;5053070;28;20792;-68
2024/03/07 10:55:00;;;;;;;13.00;9.90;;;21.40;35.80;;;;;;5053037;28;20410;-69
2024/03/07 10:57:39;;;;;;;19.47;12.40;;;23.60;32.40;;;;;;5053081;28;20437;-68
2024/03/07 11:00:24;;;;;;;9.80;8.50;;;26.20;30.00;;;;;;5052703;28;20737;-69
2024/03/07 11:02:53;;;;;;;13.90;10.07;;;27.40;28.30;;;;;;5052859;28;20401;-69
2024/03/07 11:05:19;;;;;;;13.70;10.30;;;28.50;26.80;;;;;;5053026;28;20417;-70
2024/03/07 11:07:44;;;;;;;11.80;10.10;;;28.90;25.70;;;;;;5053003;28;20787;-69
2024/03/07 11:10:11;;;;;;;14.80;12.23;;;29.60;25.50;;;;;;5052980;28;20155;-69
2024/03/07 11:12:39;;;;;;;12.90;10.30;;;29.10;24.40;;;;;;5053008;28;20258;-69
2024/03/07 11:15:06;;;;;;;14.37;11.60;;;29.60;24.80;;;;;;5052587;28;20455;-69
2024/03/07 11:17:33;;;;;;;16.23;11.23;;;29.70;24.30;;;;;;5052840;28;20447;-69
2024/03/07 11:20:20;;;;;;;13.90;11.40;;;30.50;24.50;;;;;;5053234;28;20799;-69
2024/03/07 11:22:45;;;;;;;13.50;10.93;;;30.90;23.20;;;;;;5052614;28;20425;-68
2024/03/07 11:25:11;;;;;;;14.67;12.70;;;31.50;23.70;;;;;;5052663;28;20437;-69
2024/03/07 11:27:38;;;;;;;17.67;12.17;;;30.90;23.10;;;;;;5052678;28;20206;-69
2024/03/07 11:30:07;;;;;;;12.07;10.43;;;30.20;23.60;;;;;;5052705;28;20169;-69
2024/03/07 11:32:36;;;;;;;13.10;11.03;;;31.10;24.60;;;;;;5052500;28;20459;-69
2024/03/07 11:35:16;;;;;;;10.97;9.87;;;31.30;23.10;;;;;;5052102;28;20406;-69
2024/03/07 11:37:47;;;;;;;12.70;11.10;;;31.90;23.10;;;;;;5050581;28;20512;-69
2024/03/07 11:40:33;;;;;;;10.90;9.80;;;30.70;22.60;;;;;;5038810;28;20410;-69
2024/03/07 11:43:04;;;;;;;11.90;10.70;;;28.90;23.10;;;;;;5044915;28;20436;-69
2024/03/07 11:45:33;;;;;;;14.43;11.17;;;26.90;23.80;;;;;;5049807;28;20549;-69
2024/03/07 11:48:00;;;;;;;13.10;11.17;;;24.70;25.10;;;;;;5049167;28;20425;-68
2024/03/07 11:50:26;;;;;;;12.00;10.10;;;24.00;27.00;;;;;;5051959;28;20534;-68
2024/03/07 11:52:56;;;;;;;11.30;10.10;;;24.60;27.50;;;;;;5047987;28;20453;-68
2024/03/07 11:55:22;;;;;;;13.40;9.63;;;24.70;27.00;;;;;;5051838;28;20954;-68
2024/03/07 11:57:50;;;;;;;13.90;10.10;;;24.00;26.80;;;;;;5051854;28;20832;-68
2024/03/07 12:00:17;;;;;;;15.23;11.10;;;23.30;27.40;;;;;;5051663;28;20405;-68
2024/03/07 12:02:43;;;;;;;12.63;10.27;;;22.00;27.50;;;;;;5050723;28;20456;-68
2024/03/07 12:05:09;;;;;;;14.90;11.03;;;21.20;28.60;;;;;;5051094;28;20425;-68
2024/03/07 12:07:35;;;;;;;15.07;9.93;;;20.20;29.50;;;;;;5051778;28;20198;-68
2024/03/07 12:10:05;;;;;;;10.93;8.83;;;20.10;30.90;;;;;;5051831;28;20402;-68
2024/03/07 12:12:32;;;;;;;14.50;9.90;;;21.50;31.10;;;;;;5050765;28;20413;-68
2024/03/07 12:14:58;;;;;;;11.87;9.67;;;23.60;30.30;;;;;;5051494;28;20406;-68
2024/03/07 12:17:24;;;;;;;13.60;9.60;;;25.40;28.30;;;;;;5051687;28;20440;-68
2024/03/07 12:19:51;;;;;;;12.43;11.20;;;26.30;26.80;;;;;;5051700;28;20166;-68
2024/03/07 12:22:22;;;;;;;12.80;9.10;;;25.50;26.70;;;;;;5051579;28;20471;-68
2024/03/07 12:25:02;;;;;;;13.27;9.70;;;24.40;27.10;;;;;;5051070;28;20413;-68
2024/03/07 12:27:28;;;;;;;11.47;10.40;;;24.00;28.40;;;;;;5055504;28;20456;-68
2024/03/07 12:29:53;;;;;;;10.17;9.10;;;24.50;28.20;;;;;;5071674;28;20401;-68
2024/03/07 12:32:19;;;;;;;16.60;11.63;;;23.90;28.00;;;;;;5071281;28;20423;-68
2024/03/07 12:34:46;;;;;;;11.80;10.13;;;22.30;27.80;;;;;;5071452;28;20166;-68
2024/03/07 12:37:16;;;;;;;11.80;9.60;;;21.50;28.80;;;;;;5071258;28;20192;-68